sensor_id;sensor_type;location;lat;lon;timestamp;pressure;altitude;pressure_sealevel;temperature;humidity
75747;BME280;70632;52.232;21.038;2023-08-12T00:01:13;100901.16;;;20.31;44.13
75747;BME280;70632;52.232;21.038;2023-08-12T00:03:39;100910.81;;;20.21;44.14
75747;BME280;70632;52.232;21.038;2023-08-12T00:06:05;100912.75;;;20.19;44.39
75747;BME280;70632;52.232;21.038;2023-08-12T00:08:31;100908.13;;;20.21;44.10
75747;BME280;70632;52.232;21.038;2023-08-12T00:10:57;100893.00;;;20.03;44.68
75747;BME280;70632;52.232;21.038;2023-08-12T00:13:22;100909.84;;;20.08;45.49
75747;BME280;70632;52.232;21.038;2023-08-12T00:15:48;100903.97;;;20.01;45.78
75747;BME280;70632;52.232;21.038;2023-08-12T00:18:14;100914.19;;;20.10;45.45
75747;BME280;70632;52.232;21.038;2023-08-12T00:20:41;100915.84;;;20.13;46.32
75747;BME280;70632;52.232;21.038;2023-08-12T00:23:08;100914.09;;;20.26;48.10
75747;BME280;70632;52.232;21.038;2023-08-12T00:25:34;100912.34;;;20.11;46.85
75747;BME280;70632;52.232;21.038;2023-08-12T00:28:00;100911.97;;;20.03;49.10
75747;BME280;70632;52.232;21.038;2023-08-12T00:30:25;100899.59;;;19.99;51.31
75747;BME280;70632;52.232;21.038;2023-08-12T00:32:51;100918.34;;;19.88;53.60
75747;BME280;70632;52.232;21.038;2023-08-12T00:35:17;100912.34;;;19.97;49.48
75747;BME280;70632;52.232;21.038;2023-08-12T00:37:43;100909.72;;;19.95;48.96
75747;BME280;70632;52.232;21.038;2023-08-12T00:40:09;100902.66;;;19.79;51.03
75747;BME280;70632;52.232;21.038;2023-08-12T00:42:35;100913.03;;;20.00;51.85
75747;BME280;70632;52.232;21.038;2023-08-12T00:45:01;100904.59;;;19.91;54.02
75747;BME280;70632;52.232;21.038;2023-08-12T00:47:28;100907.97;;;19.94;51.90
75747;BME280;70632;52.232;21.038;2023-08-12T00:49:54;100908.56;;;19.99;52.49
75747;BME280;70632;52.232;21.038;2023-08-12T00:52:22;100908.19;;;19.91;53.35
75747;BME280;70632;52.232;21.038;2023-08-12T00:54:48;100908.19;;;19.77;54.98
75747;BME280;70632;52.232;21.038;2023-08-12T00:57:14;100908.06;;;19.79;54.73
75747;BME280;70632;52.232;21.038;2023-08-12T00:59:41;100899.53;;;19.56;56.15
75747;BME280;70632;52.232;21.038;2023-08-12T01:02:09;100904.88;;;19.42;57.34
75747;BME280;70632;52.232;21.038;2023-08-12T01:04:34;100895.84;;;19.42;57.14
75747;BME280;70632;52.232;21.038;2023-08-12T01:07:00;100899.78;;;19.52;56.78
75747;BME280;70632;52.232;21.038;2023-08-12T01:09:26;100892.31;;;19.41;56.91
75747;BME280;70632;52.232;21.038;2023-08-12T01:12:12;100897.84;;;19.54;56.36
75747;BME280;70632;52.232;21.038;2023-08-12T01:14:45;100880.94;;;19.50;55.91
75747;BME280;70632;52.232;21.038;2023-08-12T01:17:15;100895.97;;;19.40;56.26
75747;BME280;70632;52.232;21.038;2023-08-12T01:19:42;100895.59;;;19.46;55.81
75747;BME280;70632;52.232;21.038;2023-08-12T01:22:10;100902.31;;;19.39;55.85
75747;BME280;70632;52.232;21.038;2023-08-12T01:24:37;100898.44;;;19.45;55.18
75747;BME280;70632;52.232;21.038;2023-08-12T01:27:04;100893.78;;;19.31;55.89
75747;BME280;70632;52.232;21.038;2023-08-12T01:29:32;100871.66;;;19.25;55.45
75747;BME280;70632;52.232;21.038;2023-08-12T01:32:29;100894.44;;;19.21;55.51
75747;BME280;70632;52.232;21.038;2023-08-12T01:37:33;100894.19;;;19.25;56.14
75747;BME280;70632;52.232;21.038;2023-08-12T01:40:02;100902.44;;;19.38;56.28
75747;BME280;70632;52.232;21.038;2023-08-12T01:42:35;100898.94;;;19.36;54.92
75747;BME280;70632;52.232;21.038;2023-08-12T01:45:02;100906.28;;;19.34;54.77
75747;BME280;70632;52.232;21.038;2023-08-12T01:47:28;100893.75;;;19.17;55.72
75747;BME280;70632;52.232;21.038;2023-08-12T01:49:55;100894.22;;;19.09;56.90
75747;BME280;70632;52.232;21.038;2023-08-12T01:52:21;100904.19;;;19.23;56.31
75747;BME280;70632;52.232;21.038;2023-08-12T01:54:47;100911.53;;;19.21;57.88
75747;BME280;70632;52.232;21.038;2023-08-12T01:57:12;100907.69;;;19.25;58.21
75747;BME280;70632;52.232;21.038;2023-08-12T01:59:38;100903.16;;;19.26;58.41
75747;BME280;70632;52.232;21.038;2023-08-12T02:02:04;100913.44;;;19.19;57.56
75747;BME280;70632;52.232;21.038;2023-08-12T02:04:30;100908.22;;;19.16;58.03
75747;BME280;70632;52.232;21.038;2023-08-12T02:06:56;100906.94;;;19.07;58.55
75747;BME280;70632;52.232;21.038;2023-08-12T02:09:22;100899.94;;;19.03;57.89
75747;BME280;70632;52.232;21.038;2023-08-12T02:11:49;100901.72;;;19.04;56.61
75747;BME280;70632;52.232;21.038;2023-08-12T02:14:15;100897.69;;;19.11;56.81
75747;BME280;70632;52.232;21.038;2023-08-12T02:16:41;100897.06;;;19.06;57.14
75747;BME280;70632;52.232;21.038;2023-08-12T02:19:07;100884.19;;;18.96;56.44
75747;BME280;70632;52.232;21.038;2023-08-12T02:21:32;100909.13;;;19.01;57.19
75747;BME280;70632;52.232;21.038;2023-08-12T02:23:58;100898.38;;;18.99;56.63
75747;BME280;70632;52.232;21.038;2023-08-12T02:26:24;100887.38;;;19.02;55.21
75747;BME280;70632;52.232;21.038;2023-08-12T02:28:49;100883.16;;;18.83;57.23
75747;BME280;70632;52.232;21.038;2023-08-12T02:31:16;100895.19;;;18.93;56.40
75747;BME280;70632;52.232;21.038;2023-08-12T02:33:42;100907.56;;;18.97;56.83
75747;BME280;70632;52.232;21.038;2023-08-12T02:36:08;100873.03;;;18.86;56.74
75747;BME280;70632;52.232;21.038;2023-08-12T02:38:34;100900.91;;;19.02;56.41
75747;BME280;70632;52.232;21.038;2023-08-12T02:41:00;100891.06;;;18.86;57.60
75747;BME280;70632;52.232;21.038;2023-08-12T02:43:26;100903.28;;;18.93;56.07
75747;BME280;70632;52.232;21.038;2023-08-12T02:45:52;100909.38;;;18.96;57.38
75747;BME280;70632;52.232;21.038;2023-08-12T02:48:17;100909.13;;;19.01;57.13
75747;BME280;70632;52.232;21.038;2023-08-12T02:50:43;100888.38;;;18.86;58.00
75747;BME280;70632;52.232;21.038;2023-08-12T02:53:09;100911.91;;;18.84;59.55
75747;BME280;70632;52.232;21.038;2023-08-12T02:55:35;100908.06;;;18.88;59.84
75747;BME280;70632;52.232;21.038;2023-08-12T02:58:02;100917.41;;;18.82;59.78
75747;BME280;70632;52.232;21.038;2023-08-12T03:00:29;100917.13;;;18.71;59.71
75747;BME280;70632;52.232;21.038;2023-08-12T03:02:54;100921.75;;;18.53;60.42
75747;BME280;70632;52.232;21.038;2023-08-12T03:05:21;100923.34;;;18.40;61.02
75747;BME280;70632;52.232;21.038;2023-08-12T03:07:47;100926.19;;;18.54;60.43
75747;BME280;70632;52.232;21.038;2023-08-12T03:10:13;100921.41;;;18.27;61.55
75747;BME280;70632;52.232;21.038;2023-08-12T03:12:39;100897.47;;;18.20;60.92
75747;BME280;70632;52.232;21.038;2023-08-12T03:15:08;100931.66;;;18.20;61.34
75747;BME280;70632;52.232;21.038;2023-08-12T03:17:34;100925.44;;;18.35;61.42
75747;BME280;70632;52.232;21.038;2023-08-12T03:20:00;100934.59;;;18.48;60.59
75747;BME280;70632;52.232;21.038;2023-08-12T03:22:27;100939.72;;;18.37;60.85
75747;BME280;70632;52.232;21.038;2023-08-12T03:24:53;100933.47;;;18.37;60.47
75747;BME280;70632;52.232;21.038;2023-08-12T03:27:24;100928.75;;;18.40;59.99
75747;BME280;70632;52.232;21.038;2023-08-12T03:29:50;100929.88;;;18.36;59.65
75747;BME280;70632;52.232;21.038;2023-08-12T03:32:16;100943.22;;;18.39;59.30
75747;BME280;70632;52.232;21.038;2023-08-12T03:34:41;100945.84;;;18.41;59.26
75747;BME280;70632;52.232;21.038;2023-08-12T03:37:07;100950.63;;;18.51;58.34
75747;BME280;70632;52.232;21.038;2023-08-12T03:39:33;100949.38;;;18.58;58.46
75747;BME280;70632;52.232;21.038;2023-08-12T03:41:58;100945.66;;;18.44;59.00
75747;BME280;70632;52.232;21.038;2023-08-12T03:44:24;100947.72;;;18.56;58.65
75747;BME280;70632;52.232;21.038;2023-08-12T03:46:52;100946.19;;;18.50;58.58
75747;BME280;70632;52.232;21.038;2023-08-12T03:49:18;100948.16;;;18.31;58.96
75747;BME280;70632;52.232;21.038;2023-08-12T03:51:43;100948.28;;;18.45;58.21
75747;BME280;70632;52.232;21.038;2023-08-12T03:54:09;100944.59;;;18.46;58.54
75747;BME280;70632;52.232;21.038;2023-08-12T03:56:35;100947.66;;;18.57;57.92
75747;BME280;70632;52.232;21.038;2023-08-12T03:59:01;100947.94;;;18.51;58.13
75747;BME280;70632;52.232;21.038;2023-08-12T04:01:26;100951.13;;;18.59;57.88
75747;BME280;70632;52.232;21.038;2023-08-12T04:03:52;100944.59;;;18.63;58.02
75747;BME280;70632;52.232;21.038;2023-08-12T04:06:18;100941.88;;;18.63;57.90
75747;BME280;70632;52.232;21.038;2023-08-12T04:08:44;100927.63;;;18.61;57.35
75747;BME280;70632;52.232;21.038;2023-08-12T04:11:09;100952.78;;;18.78;57.35
75747;BME280;70632;52.232;21.038;2023-08-12T04:13:35;100952.00;;;18.76;57.20
75747;BME280;70632;52.232;21.038;2023-08-12T04:16:01;100947.81;;;18.86;56.87
75747;BME280;70632;52.232;21.038;2023-08-12T04:18:26;100933.72;;;18.81;57.00
75747;BME280;70632;52.232;21.038;2023-08-12T04:20:52;100947.56;;;18.90;56.65
75747;BME280;70632;52.232;21.038;2023-08-12T04:23:19;100941.00;;;18.94;56.74
75747;BME280;70632;52.232;21.038;2023-08-12T04:25:47;100938.25;;;18.96;56.43
75747;BME280;70632;52.232;21.038;2023-08-12T04:28:14;100945.22;;;19.00;55.92
75747;BME280;70632;52.232;21.038;2023-08-12T04:30:43;100948.69;;;19.17;55.54
75747;BME280;70632;52.232;21.038;2023-08-12T04:33:09;100942.44;;;19.01;55.84
75747;BME280;70632;52.232;21.038;2023-08-12T04:35:35;100950.34;;;19.20;55.03
75747;BME280;70632;52.232;21.038;2023-08-12T04:38:01;100956.88;;;19.16;55.43
75747;BME280;70632;52.232;21.038;2023-08-12T04:40:26;100935.44;;;19.13;54.80
75747;BME280;70632;52.232;21.038;2023-08-12T04:42:52;100957.94;;;19.29;54.45
75747;BME280;70632;52.232;21.038;2023-08-12T04:45:18;100948.81;;;19.30;54.04
75747;BME280;70632;52.232;21.038;2023-08-12T04:47:44;100949.91;;;19.43;53.24
75747;BME280;70632;52.232;21.038;2023-08-12T04:50:09;100960.88;;;19.40;52.13
75747;BME280;70632;52.232;21.038;2023-08-12T04:52:36;100952.41;;;19.46;51.12
75747;BME280;70632;52.232;21.038;2023-08-12T04:55:01;100955.66;;;19.53;51.56
75747;BME280;70632;52.232;21.038;2023-08-12T04:57:28;100953.69;;;19.55;50.96
75747;BME280;70632;52.232;21.038;2023-08-12T04:59:54;100938.56;;;19.67;50.26
75747;BME280;70632;52.232;21.038;2023-08-12T05:02:21;100938.00;;;19.61;50.35
75747;BME280;70632;52.232;21.038;2023-08-12T05:04:51;100931.84;;;19.74;49.98
75747;BME280;70632;52.232;21.038;2023-08-12T05:07:17;100939.22;;;19.86;50.18
75747;BME280;70632;52.232;21.038;2023-08-12T05:09:43;100944.63;;;19.86;50.47
75747;BME280;70632;52.232;21.038;2023-08-12T05:12:12;100934.88;;;19.97;50.49
75747;BME280;70632;52.232;21.038;2023-08-12T05:14:39;100928.66;;;19.81;51.30
75747;BME280;70632;52.232;21.038;2023-08-12T05:17:05;100935.84;;;19.96;51.40
75747;BME280;70632;52.232;21.038;2023-08-12T05:19:31;100934.97;;;19.96;50.70
75747;BME280;70632;52.232;21.038;2023-08-12T05:21:58;100932.66;;;19.90;51.16
75747;BME280;70632;52.232;21.038;2023-08-12T05:24:23;100929.56;;;19.96;50.97
75747;BME280;70632;52.232;21.038;2023-08-12T05:26:49;100921.63;;;20.07;50.99
75747;BME280;70632;52.232;21.038;2023-08-12T05:29:15;100938.06;;;20.18;50.55
75747;BME280;70632;52.232;21.038;2023-08-12T05:31:40;100924.16;;;20.10;50.41
75747;BME280;70632;52.232;21.038;2023-08-12T05:34:06;100930.59;;;20.37;49.98
75747;BME280;70632;52.232;21.038;2023-08-12T05:36:32;100916.84;;;20.40;49.78
75747;BME280;70632;52.232;21.038;2023-08-12T05:38:58;100925.94;;;20.39;50.11
75747;BME280;70632;52.232;21.038;2023-08-12T05:41:24;100923.63;;;20.47;49.94
75747;BME280;70632;52.232;21.038;2023-08-12T05:43:49;100919.16;;;20.61;49.55
75747;BME280;70632;52.232;21.038;2023-08-12T05:46:15;100926.31;;;20.62;49.63
75747;BME280;70632;52.232;21.038;2023-08-12T05:48:41;100928.78;;;20.79;49.65
75747;BME280;70632;52.232;21.038;2023-08-12T05:51:07;100924.16;;;20.67;49.81
75747;BME280;70632;52.232;21.038;2023-08-12T05:53:32;100926.13;;;20.65;50.06
75747;BME280;70632;52.232;21.038;2023-08-12T05:55:59;100926.00;;;20.80;49.99
75747;BME280;70632;52.232;21.038;2023-08-12T05:58:25;100924.09;;;20.95;49.54
75747;BME280;70632;52.232;21.038;2023-08-12T06:00:51;100921.69;;;20.90;49.42
75747;BME280;70632;52.232;21.038;2023-08-12T06:03:16;100926.53;;;21.14;49.46
75747;BME280;70632;52.232;21.038;2023-08-12T06:05:45;100916.13;;;21.20;49.12
75747;BME280;70632;52.232;21.038;2023-08-12T06:08:11;100914.72;;;21.27;49.04
75747;BME280;70632;52.232;21.038;2023-08-12T06:10:37;100921.00;;;21.42;48.99
75747;BME280;70632;52.232;21.038;2023-08-12T06:13:03;100918.38;;;21.40;48.85
75747;BME280;70632;52.232;21.038;2023-08-12T06:15:29;100920.13;;;21.41;49.19
75747;BME280;70632;52.232;21.038;2023-08-12T06:17:55;100912.50;;;21.46;49.08
75747;BME280;70632;52.232;21.038;2023-08-12T06:20:21;100918.97;;;21.58;48.86
75747;BME280;70632;52.232;21.038;2023-08-12T06:22:46;100920.06;;;21.68;48.79
75747;BME280;70632;52.232;21.038;2023-08-12T06:25:12;100917.72;;;21.89;48.44
75747;BME280;70632;52.232;21.038;2023-08-12T06:27:38;100921.44;;;22.01;48.26
75747;BME280;70632;52.232;21.038;2023-08-12T06:30:07;100925.06;;;21.87;48.76
75747;BME280;70632;52.232;21.038;2023-08-12T06:32:36;100927.09;;;21.98;48.53
75747;BME280;70632;52.232;21.038;2023-08-12T06:35:02;100925.13;;;22.12;48.37
75747;BME280;70632;52.232;21.038;2023-08-12T06:37:28;100928.41;;;22.17;47.46
75747;BME280;70632;52.232;21.038;2023-08-12T06:39:54;100926.00;;;22.13;47.44
75747;BME280;70632;52.232;21.038;2023-08-12T06:42:21;100928.19;;;22.33;47.97
75747;BME280;70632;52.232;21.038;2023-08-12T06:44:54;100928.41;;;22.43;47.88
75747;BME280;70632;52.232;21.038;2023-08-12T06:47:20;100932.50;;;22.48;47.59
75747;BME280;70632;52.232;21.038;2023-08-12T06:49:46;100927.50;;;22.55;47.04
75747;BME280;70632;52.232;21.038;2023-08-12T06:52:11;100937.59;;;22.65;46.36
75747;BME280;70632;52.232;21.038;2023-08-12T06:54:37;100932.50;;;22.73;45.82
75747;BME280;70632;52.232;21.038;2023-08-12T06:57:03;100928.34;;;22.80;45.67
75747;BME280;70632;52.232;21.038;2023-08-12T06:59:29;100927.28;;;22.70;46.16
75747;BME280;70632;52.232;21.038;2023-08-12T07:01:54;100927.25;;;22.83;45.64
75747;BME280;70632;52.232;21.038;2023-08-12T07:04:20;100938.56;;;22.90;45.25
75747;BME280;70632;52.232;21.038;2023-08-12T07:06:46;100920.72;;;22.85;45.31
75747;BME280;70632;52.232;21.038;2023-08-12T07:09:12;100918.47;;;23.03;45.05
75747;BME280;70632;52.232;21.038;2023-08-12T07:11:38;100919.78;;;23.10;44.57
75747;BME280;70632;52.232;21.038;2023-08-12T07:14:04;100921.78;;;23.19;44.18
75747;BME280;70632;52.232;21.038;2023-08-12T07:16:29;100914.28;;;23.23;43.61
75747;BME280;70632;52.232;21.038;2023-08-12T07:18:55;100910.97;;;23.30;43.65
75747;BME280;70632;52.232;21.038;2023-08-12T07:21:21;100927.78;;;23.48;42.52
75747;BME280;70632;52.232;21.038;2023-08-12T07:23:47;100921.75;;;23.56;41.97
75747;BME280;70632;52.232;21.038;2023-08-12T07:26:12;100924.13;;;23.60;40.97
75747;BME280;70632;52.232;21.038;2023-08-12T07:28:38;100914.72;;;23.64;40.51
75747;BME280;70632;52.232;21.038;2023-08-12T07:31:04;100913.63;;;23.67;39.10
75747;BME280;70632;52.232;21.038;2023-08-12T07:33:30;100910.41;;;23.73;38.31
75747;BME280;70632;52.232;21.038;2023-08-12T07:35:55;100912.19;;;23.85;37.34
75747;BME280;70632;52.232;21.038;2023-08-12T07:38:21;100905.63;;;23.88;37.33
75747;BME280;70632;52.232;21.038;2023-08-12T07:40:48;100903.78;;;23.99;38.02
75747;BME280;70632;52.232;21.038;2023-08-12T07:43:14;100907.28;;;24.01;36.50
75747;BME280;70632;52.232;21.038;2023-08-12T07:45:40;100907.03;;;24.04;34.07
75747;BME280;70632;52.232;21.038;2023-08-12T07:48:06;100909.50;;;24.07;32.55
75747;BME280;70632;52.232;21.038;2023-08-12T07:50:31;100906.75;;;23.96;33.11
75747;BME280;70632;52.232;21.038;2023-08-12T07:52:57;100905.28;;;24.03;33.25
75747;BME280;70632;52.232;21.038;2023-08-12T07:55:23;100894.25;;;24.05;34.47
75747;BME280;70632;52.232;21.038;2023-08-12T07:57:49;100893.28;;;24.06;36.34
75747;BME280;70632;52.232;21.038;2023-08-12T08:00:14;100893.66;;;24.12;37.21
75747;BME280;70632;52.232;21.038;2023-08-12T08:02:40;100895.66;;;24.10;36.76
75747;BME280;70632;52.232;21.038;2023-08-12T08:05:06;100885.16;;;24.17;36.62
75747;BME280;70632;52.232;21.038;2023-08-12T08:07:32;100891.22;;;24.20;36.91
75747;BME280;70632;52.232;21.038;2023-08-12T08:09:58;100887.25;;;24.24;35.23
75747;BME280;70632;52.232;21.038;2023-08-12T08:12:24;100886.63;;;24.32;35.38
75747;BME280;70632;52.232;21.038;2023-08-12T08:14:50;100873.16;;;24.31;35.99
75747;BME280;70632;52.232;21.038;2023-08-12T08:17:15;100877.63;;;24.43;35.45
75747;BME280;70632;52.232;21.038;2023-08-12T08:19:41;100875.84;;;24.53;36.38
75747;BME280;70632;52.232;21.038;2023-08-12T08:22:07;100868.03;;;24.59;35.98
75747;BME280;70632;52.232;21.038;2023-08-12T08:24:32;100869.28;;;24.66;34.87
75747;BME280;70632;52.232;21.038;2023-08-12T08:26:58;100854.25;;;24.72;34.85
75747;BME280;70632;52.232;21.038;2023-08-12T08:29:24;100873.47;;;24.93;34.62
75747;BME280;70632;52.232;21.038;2023-08-12T08:31:50;100868.97;;;25.03;33.33
75747;BME280;70632;52.232;21.038;2023-08-12T08:34:16;100865.44;;;25.23;32.26
75747;BME280;70632;52.232;21.038;2023-08-12T08:36:41;100862.66;;;25.34;31.73
75747;BME280;70632;52.232;21.038;2023-08-12T08:39:08;100872.50;;;25.57;31.66
75747;BME280;70632;52.232;21.038;2023-08-12T08:41:38;100868.97;;;25.87;30.96
75747;BME280;70632;52.232;21.038;2023-08-12T08:44:07;100869.53;;;26.32;30.42
75747;BME280;70632;52.232;21.038;2023-08-12T08:46:33;100859.47;;;26.82;29.91
75747;BME280;70632;52.232;21.038;2023-08-12T08:48:59;100867.66;;;27.70;28.82
75747;BME280;70632;52.232;21.038;2023-08-12T08:51:32;100857.56;;;28.64;27.95
75747;BME280;70632;52.232;21.038;2023-08-12T08:53:58;100861.13;;;29.72;26.33
75747;BME280;70632;52.232;21.038;2023-08-12T08:56:24;100850.13;;;30.91;24.29
75747;BME280;70632;52.232;21.038;2023-08-12T08:58:50;100859.94;;;32.17;22.51
75747;BME280;70632;52.232;21.038;2023-08-12T09:01:18;100857.63;;;33.45;21.33
75747;BME280;70632;52.232;21.038;2023-08-12T09:03:46;100851.06;;;34.36;19.86
75747;BME280;70632;52.232;21.038;2023-08-12T09:06:13;100849.13;;;35.52;18.95
75747;BME280;70632;52.232;21.038;2023-08-12T09:08:40;100838.03;;;36.22;18.02
75747;BME280;70632;52.232;21.038;2023-08-12T09:11:12;100837.06;;;36.77;17.23
75747;BME280;70632;52.232;21.038;2023-08-12T09:13:38;100835.19;;;37.71;16.49
75747;BME280;70632;52.232;21.038;2023-08-12T09:16:04;100838.81;;;38.18;15.96
75747;BME280;70632;52.232;21.038;2023-08-12T09:18:30;100837.09;;;38.30;15.89
75747;BME280;70632;52.232;21.038;2023-08-12T09:20:56;100817.94;;;38.60;15.42
75747;BME280;70632;52.232;21.038;2023-08-12T09:23:22;100828.31;;;38.84;15.46
75747;BME280;70632;52.232;21.038;2023-08-12T09:25:48;100830.75;;;39.18;15.12
75747;BME280;70632;52.232;21.038;2023-08-12T09:28:14;100822.91;;;39.71;14.32
75747;BME280;70632;52.232;21.038;2023-08-12T09:30:40;100829.34;;;40.21;13.72
75747;BME280;70632;52.232;21.038;2023-08-12T09:33:08;100808.69;;;39.98;14.26
75747;BME280;70632;52.232;21.038;2023-08-12T09:35:38;100822.38;;;40.06;14.09
75747;BME280;70632;52.232;21.038;2023-08-12T09:49:27;100812.38;;;40.59;13.17
75747;BME280;70632;52.232;21.038;2023-08-12T09:51:55;100807.38;;;40.80;13.13
75747;BME280;70632;52.232;21.038;2023-08-12T09:54:21;100808.78;;;40.52;13.13
75747;BME280;70632;52.232;21.038;2023-08-12T09:56:48;100816.69;;;40.19;13.44
75747;BME280;70632;52.232;21.038;2023-08-12T09:59:20;100805.88;;;39.80;14.30
75747;BME280;70632;52.232;21.038;2023-08-12T10:01:49;100801.13;;;39.55;14.53
75747;BME280;70632;52.232;21.038;2023-08-12T10:04:17;100799.28;;;38.60;15.17
75747;BME280;70632;52.232;21.038;2023-08-12T10:06:47;100799.38;;;37.22;16.17
75747;BME280;70632;52.232;21.038;2023-08-12T10:09:15;100784.28;;;36.90;16.65
75747;BME280;70632;52.232;21.038;2023-08-12T10:11:41;100787.91;;;36.09;17.68
75747;BME280;70632;52.232;21.038;2023-08-12T10:14:08;100790.81;;;35.24;18.00
75747;BME280;70632;52.232;21.038;2023-08-12T10:16:35;100788.59;;;34.48;18.57
75747;BME280;70632;52.232;21.038;2023-08-12T10:19:02;100783.81;;;34.12;19.05
75747;BME280;70632;52.232;21.038;2023-08-12T10:21:29;100775.50;;;33.46;19.65
75747;BME280;70632;52.232;21.038;2023-08-12T10:23:58;100775.59;;;32.84;20.88
75747;BME280;70632;52.232;21.038;2023-08-12T10:26:27;100772.53;;;32.79;20.68
75747;BME280;70632;52.232;21.038;2023-08-12T10:28:54;100771.69;;;32.39;21.42
75747;BME280;70632;52.232;21.038;2023-08-12T10:31:20;100761.28;;;32.49;21.42
75747;BME280;70632;52.232;21.038;2023-08-12T10:33:46;100758.41;;;32.35;21.88
75747;BME280;70632;52.232;21.038;2023-08-12T10:36:15;100758.16;;;32.53;21.05
75747;BME280;70632;52.232;21.038;2023-08-12T10:38:44;100771.97;;;33.37;19.89
75747;BME280;70632;52.232;21.038;2023-08-12T10:41:17;100774.28;;;34.00;19.43
75747;BME280;70632;52.232;21.038;2023-08-12T10:43:52;100767.69;;;34.96;19.20
75747;BME280;70632;52.232;21.038;2023-08-12T10:49:07;100758.97;;;36.59;17.23
75747;BME280;70632;52.232;21.038;2023-08-12T10:57:09;100750.78;;;37.05;17.18
75747;BME280;70632;52.232;21.038;2023-08-12T11:02:37;100749.16;;;36.76;17.03
75747;BME280;70632;52.232;21.038;2023-08-12T11:05:10;100734.06;;;37.12;16.90
75747;BME280;70632;52.232;21.038;2023-08-12T11:10:10;100732.72;;;38.26;15.89
75747;BME280;70632;52.232;21.038;2023-08-12T11:12:38;100735.97;;;39.12;15.64
75747;BME280;70632;52.232;21.038;2023-08-12T11:15:05;100720.38;;;39.29;15.05
75747;BME280;70632;52.232;21.038;2023-08-12T11:17:39;100724.19;;;39.59;14.97
75747;BME280;70632;52.232;21.038;2023-08-12T11:20:06;100724.28;;;39.71;14.84
75747;BME280;70632;52.232;21.038;2023-08-12T11:22:36;100710.56;;;39.20;15.25
75747;BME280;70632;52.232;21.038;2023-08-12T11:25:04;100715.09;;;39.89;14.48
75747;BME280;70632;52.232;21.038;2023-08-12T11:27:51;100715.19;;;39.82;15.09
75747;BME280;70632;52.232;21.038;2023-08-12T11:30:18;100709.59;;;39.33;14.99
75747;BME280;70632;52.232;21.038;2023-08-12T11:32:47;100712.94;;;39.48;15.07
75747;BME280;70632;52.232;21.038;2023-08-12T11:35:14;100714.41;;;39.93;14.43
75747;BME280;70632;52.232;21.038;2023-08-12T11:37:42;100714.09;;;40.01;14.81
75747;BME280;70632;52.232;21.038;2023-08-12T11:40:10;100706.31;;;40.28;14.89
75747;BME280;70632;52.232;21.038;2023-08-12T11:42:41;100698.84;;;40.22;14.52
75747;BME280;70632;52.232;21.038;2023-08-12T11:45:07;100701.81;;;39.41;14.92
75747;BME280;70632;52.232;21.038;2023-08-12T11:47:34;100705.97;;;40.00;14.85
75747;BME280;70632;52.232;21.038;2023-08-12T11:50:07;100695.34;;;40.08;14.34
75747;BME280;70632;52.232;21.038;2023-08-12T11:52:37;100700.44;;;39.50;15.06
75747;BME280;70632;52.232;21.038;2023-08-12T11:55:04;100691.38;;;39.55;14.63
75747;BME280;70632;52.232;21.038;2023-08-12T11:57:30;100693.88;;;39.88;15.11
75747;BME280;70632;52.232;21.038;2023-08-12T12:00:07;100694.28;;;38.85;15.62
75747;BME280;70632;52.232;21.038;2023-08-12T12:02:48;100687.72;;;39.36;15.49
75747;BME280;70632;52.232;21.038;2023-08-12T12:05:16;100687.31;;;39.26;15.64
75747;BME280;70632;52.232;21.038;2023-08-12T12:07:42;100684.31;;;39.03;15.56
75747;BME280;70632;52.232;21.038;2023-08-12T12:10:33;100677.22;;;39.25;15.33
75747;BME280;70632;52.232;21.038;2023-08-12T12:13:00;100674.97;;;39.15;15.61
75747;BME280;70632;52.232;21.038;2023-08-12T12:15:26;100677.06;;;38.57;16.14
75747;BME280;70632;52.232;21.038;2023-08-12T12:17:52;100674.00;;;38.27;16.60
75747;BME280;70632;52.232;21.038;2023-08-12T12:20:18;100672.44;;;38.38;16.44
75747;BME280;70632;52.232;21.038;2023-08-12T12:22:45;100674.19;;;37.29;16.75
75747;BME280;70632;52.232;21.038;2023-08-12T12:25:12;100651.34;;;35.92;17.95
75747;BME280;70632;52.232;21.038;2023-08-12T12:27:39;100664.44;;;35.64;18.86
75747;BME280;70632;52.232;21.038;2023-08-12T12:30:09;100655.75;;;35.46;19.17
75747;BME280;70632;52.232;21.038;2023-08-12T12:32:36;100652.31;;;35.44;19.02
75747;BME280;70632;52.232;21.038;2023-08-12T12:35:03;100657.94;;;35.22;18.99
75747;BME280;70632;52.232;21.038;2023-08-12T12:37:30;100652.97;;;34.04;20.77
75747;BME280;70632;52.232;21.038;2023-08-12T12:39:55;100660.44;;;32.84;21.51
75747;BME280;70632;52.232;21.038;2023-08-12T12:42:21;100653.63;;;32.72;21.81
75747;BME280;70632;52.232;21.038;2023-08-12T12:44:47;100652.75;;;33.32;21.54
75747;BME280;70632;52.232;21.038;2023-08-12T12:47:12;100647.84;;;33.57;21.30
75747;BME280;70632;52.232;21.038;2023-08-12T12:49:39;100648.06;;;33.70;20.98
75747;BME280;70632;52.232;21.038;2023-08-12T12:52:07;100644.34;;;33.77;21.21
75747;BME280;70632;52.232;21.038;2023-08-12T12:54:32;100642.22;;;33.79;21.03
75747;BME280;70632;52.232;21.038;2023-08-12T12:56:58;100637.63;;;33.57;21.74
75747;BME280;70632;52.232;21.038;2023-08-12T12:59:24;100620.00;;;33.58;21.38
75747;BME280;70632;52.232;21.038;2023-08-12T13:01:50;100633.84;;;33.73;21.62
75747;BME280;70632;52.232;21.038;2023-08-12T13:04:16;100631.72;;;33.90;21.47
75747;BME280;70632;52.232;21.038;2023-08-12T13:06:41;100631.84;;;33.81;21.39